Time;durP1;ratioP1;P1;durP2;ratioP2;P2;SDS_P1;SDS_P2;PMS_P1;PMS_P2;Temp;Humidity;BMP_temperature;BMP_pressure;BME280_temperature;BME280_humidity;BME280_pressure;Samples;Min_cycle;Max_cycle;Signal;HPM_P1;HPM_P2
2023/07/05 00:01:29;;;;;;;5.70;3.00;;;15.70;1.00;;;;;;6251121;23;20059;-89
2023/07/05 00:04:19;;;;;;;6.10;2.90;;;15.50;1.00;;;;;;6248025;23;20039;-89
2023/07/05 00:07:07;;;;;;;5.78;3.20;;;15.40;1.00;;;;;;6255369;23;20059;-87
2023/07/05 00:09:54;;;;;;;4.53;3.00;;;15.30;1.00;;;;;;6251930;23;20020;-89
2023/07/05 00:12:41;;;;;;;7.65;3.08;;;15.30;1.00;;;;;;6252499;23;20640;-89
2023/07/05 00:15:30;;;;;;;3.97;2.33;;;15.20;1.00;;;;;;6254241;23;20482;-88
2023/07/05 00:18:18;;;;;;;11.95;3.47;;;15.20;1.00;;;;;;6253751;23;20032;-88
2023/07/05 00:21:09;;;;;;;4.03;2.42;;;15.20;1.00;;;;;;6250693;23;20039;-88
2023/07/05 00:23:56;;;;;;;4.15;2.33;;;15.30;1.00;;;;;;6250962;23;20028;-90
2023/07/05 00:26:44;;;;;;;4.05;2.50;;;15.30;1.00;;;;;;6256147;23;20031;-90
2023/07/05 00:29:31;;;;;;;4.07;2.28;;;15.40;1.00;;;;;;6254752;23;20048;-89
2023/07/05 00:32:20;;;;;;;3.47;2.50;;;15.60;1.00;;;;;;6253848;23;20024;-89
2023/07/05 00:35:08;;;;;;;3.20;2.72;;;15.60;1.00;;;;;;6251348;23;20024;-87
2023/07/05 00:37:55;;;;;;;2.75;2.42;;;15.70;1.00;;;;;;6249447;23;20319;-88
2023/07/05 00:40:43;;;;;;;5.20;2.83;;;15.60;1.00;;;;;;6250548;23;20051;-88
2023/07/05 00:43:30;;;;;;;6.95;2.53;;;15.60;1.00;;;;;;6249625;23;20039;-88
2023/07/05 00:46:26;;;;;;;5.88;2.80;;;15.50;1.00;;;;;;6249628;23;20055;-89
2023/07/05 00:49:17;;;;;;;6.53;2.88;;;15.50;1.00;;;;;;6249343;23;20085;-87
2023/07/05 00:52:09;;;;;;;3.45;2.42;;;15.50;1.00;;;;;;6248576;23;20281;-88
2023/07/05 00:54:59;;;;;;;3.65;2.33;;;15.60;1.00;;;;;;6249799;23;20024;-87
2023/07/05 00:57:47;;;;;;;5.50;2.33;;;15.70;1.00;;;;;;6248210;22;20335;-88
2023/07/05 01:00:35;;;;;;;3.85;2.47;;;15.80;1.00;;;;;;6247981;23;20028;-88
2023/07/05 01:03:25;;;;;;;4.65;2.05;;;16.00;1.00;;;;;;6249711;23;20376;-89
2023/07/05 01:06:14;;;;;;;5.68;2.25;;;16.20;99.90;;;;;;6248391;23;20439;-88
2023/07/05 01:09:01;;;;;;;4.45;2.55;;;16.40;99.90;;;;;;6247076;23;20316;-89
2023/07/05 01:11:51;;;;;;;4.43;1.77;;;16.50;99.90;;;;;;6246271;23;20019;-87
2023/07/05 01:14:48;;;;;;;2.55;1.98;;;16.50;99.90;;;;;;6248985;23;20016;-88
2023/07/05 01:17:43;;;;;;;3.17;1.77;;;16.50;99.90;;;;;;6247462;23;20032;-90
2023/07/05 01:20:48;;;;;;;4.20;2.08;;;16.60;99.90;;;;;;6247664;23;20028;-88
2023/07/05 01:24:11;;;;;;;2.90;1.70;;;16.60;99.90;;;;;;6248939;23;20028;-89
2023/07/05 01:27:10;;;;;;;3.13;2.10;;;16.60;99.90;;;;;;6226749;22;20055;-88
2023/07/05 01:30:00;;;;;;;3.70;1.90;;;16.70;99.90;;;;;;6247322;23;20035;-88
2023/07/05 01:33:27;;;;;;;4.15;2.30;;;16.60;99.90;;;;;;6246934;23;20035;-87
2023/07/05 01:36:19;;;;;;;3.90;2.25;;;16.60;99.90;;;;;;6223932;22;20333;-87
2023/07/05 01:39:09;;;;;;;5.30;2.13;;;16.60;99.90;;;;;;6246557;23;20024;-88
2023/07/05 01:41:56;;;;;;;3.95;1.83;;;16.60;99.90;;;;;;6248192;23;20399;-88
2023/07/05 01:44:44;;;;;;;3.92;2.00;;;16.50;99.90;;;;;;6250279;23;20020;-87
2023/07/05 01:47:41;;;;;;;2.78;2.03;;;16.40;99.90;;;;;;6251802;23;20024;-89
2023/07/05 01:50:46;;;;;;;3.85;2.50;;;16.30;99.90;;;;;;6247602;23;20028;-87
2023/07/05 01:53:40;;;;;;;5.45;2.50;;;16.20;99.90;;;;;;6247192;23;20027;-88
2023/07/05 01:56:36;;;;;;;4.90;2.17;;;16.20;99.90;;;;;;6246885;23;20028;-89
2023/07/05 01:59:26;;;;;;;4.00;2.50;;;16.30;99.90;;;;;;6226412;23;20027;-89
2023/07/05 02:02:15;;;;;;;8.63;2.42;;;16.30;99.90;;;;;;6247625;23;20103;-87
2023/07/05 02:05:04;;;;;;;4.65;2.60;;;16.30;99.90;;;;;;6247998;23;20034;-90
2023/07/05 02:07:52;;;;;;;3.38;2.13;;;16.40;99.90;;;;;;6251507;22;20359;-91
2023/07/05 02:10:41;;;;;;;3.13;1.95;;;16.40;99.90;;;;;;6248776;23;20079;-89
2023/07/05 02:13:28;;;;;;;4.88;2.50;;;16.50;99.90;;;;;;6248270;23;20028;-87
2023/07/05 02:16:16;;;;;;;2.63;2.10;;;16.60;99.90;;;;;;6247519;23;20024;-89
2023/07/05 02:19:03;;;;;;;2.70;1.80;;;16.60;99.90;;;;;;6247369;23;20340;-91
2023/07/05 02:21:52;;;;;;;3.13;2.20;;;16.60;99.90;;;;;;6249673;22;20024;-91
2023/07/05 02:24:40;;;;;;;2.92;2.05;;;16.40;99.90;;;;;;6247329;23;20051;-90
2023/07/05 02:27:30;;;;;;;3.63;2.50;;;16.40;99.90;;;;;;6248994;23;20143;-89
2023/07/05 02:30:22;;;;;;;4.97;2.20;;;16.40;99.90;;;;;;6246814;23;20485;-89
2023/07/05 02:33:12;;;;;;;3.78;2.60;;;16.20;1.00;;;;;;6246898;23;20113;-88
2023/07/05 02:36:05;;;;;;;3.78;2.55;;;16.10;1.00;;;;;;6247800;23;20024;-91
2023/07/05 02:38:54;;;;;;;3.30;2.25;;;16.00;1.00;;;;;;6248153;23;20028;-88
2023/07/05 02:41:43;;;;;;;3.63;2.55;;;16.00;1.00;;;;;;6247865;23;20027;-88
2023/07/05 02:44:31;;;;;;;4.65;2.17;;;16.00;19.80;;;;;;6247914;23;20028;-89
2023/07/05 02:47:19;;;;;;;4.32;2.03;;;16.10;12.70;;;;;;6246609;23;20031;-89
2023/07/05 02:50:08;;;;;;;3.55;2.20;;;16.10;25.90;;;;;;6247111;23;20461;-89
2023/07/05 02:52:56;;;;;;;3.70;1.90;;;16.20;7.10;;;;;;6246761;23;20432;-88
2023/07/05 02:55:43;;;;;;;7.57;2.30;;;16.30;1.00;;;;;;6247305;23;20027;-89
2023/07/05 02:58:30;;;;;;;3.80;2.17;;;16.30;1.00;;;;;;6249846;23;20023;-89
2023/07/05 03:01:18;;;;;;;4.97;2.42;;;16.30;1.00;;;;;;6246384;23;20024;-94
2023/07/05 03:04:13;;;;;;;4.05;2.53;;;16.20;52.60;;;;;;6246364;23;20103;-89
2023/07/05 03:07:00;;;;;;;5.38;2.40;;;16.00;99.90;;;;;;6247369;23;20495;-91
2023/07/05 03:09:50;;;;;;;5.00;2.58;;;15.80;99.90;;;;;;6250411;23;20031;-91
2023/07/05 03:12:40;;;;;;;2.65;2.38;;;15.70;99.90;;;;;;6249853;23;20099;-94
2023/07/05 03:15:29;;;;;;;3.10;2.30;;;15.70;99.90;;;;;;6248631;23;20113;-91
2023/07/05 03:18:17;;;;;;;6.03;2.30;;;15.70;1.00;;;;;;6247437;23;20431;-89
2023/07/05 03:21:05;;;;;;;3.83;2.20;;;15.70;1.00;;;;;;6247085;23;20103;-89
2023/07/05 03:23:52;;;;;;;3.08;2.55;;;15.70;1.00;;;;;;6247694;23;20027;-89
2023/07/05 03:26:39;;;;;;;3.80;2.20;;;15.80;91.30;;;;;;6251882;22;20024;-88
2023/07/05 03:29:27;;;;;;;4.22;2.78;;;15.80;99.90;;;;;;6249525;23;20031;-89
2023/07/05 03:32:20;;;;;;;4.75;2.53;;;15.80;99.90;;;;;;6245824;23;20047;-91
2023/07/05 03:35:14;;;;;;;2.60;2.38;;;15.80;1.00;;;;;;6247740;23;20024;-89
2023/07/05 03:38:01;;;;;;;5.10;2.50;;;15.80;1.00;;;;;;6247031;23;20404;-88
2023/07/05 03:41:22;;;;;;;3.63;2.38;;;15.80;99.90;;;;;;6247358;23;20103;-89
2023/07/05 03:44:10;;;;;;;4.15;2.30;;;15.80;99.90;;;;;;6246670;23;20039;-87
2023/07/05 03:47:07;;;;;;;4.30;2.38;;;15.80;1.00;;;;;;6266874;22;20052;-91
2023/07/05 03:49:55;;;;;;;3.80;2.38;;;15.80;1.00;;;;;;6246722;23;20035;-90
2023/07/05 03:52:42;;;;;;;7.05;2.80;;;15.80;1.00;;;;;;6248690;23;20031;-90
2023/07/05 03:55:37;;;;;;;2.42;2.03;;;15.80;1.00;;;;;;6248313;23;20027;-87
2023/07/05 03:58:24;;;;;;;7.32;2.50;;;15.70;1.00;;;;;;6246078;23;20031;-85
2023/07/05 04:08:24;;;;;;;2.58;2.17;;;15.50;1.00;;;;;;6207290;22;20336;-90
2023/07/05 04:11:12;;;;;;;2.75;2.40;;;15.50;99.90;;;;;;6193999;23;20431;-91
2023/07/05 04:14:00;;;;;;;3.42;2.50;;;15.50;99.90;;;;;;6195463;23;20103;-92
2023/07/05 04:16:48;;;;;;;3.90;2.00;;;15.60;99.90;;;;;;6196371;23;20035;-90
2023/07/05 04:19:35;;;;;;;7.05;2.35;;;15.70;99.90;;;;;;6196078;23;20309;-92
2023/07/05 04:22:22;;;;;;;4.80;2.30;;;15.70;99.90;;;;;;6215592;23;20095;-89
2023/07/05 04:25:13;;;;;;;3.85;2.45;;;15.70;99.90;;;;;;6221389;23;20308;-89
2023/07/05 04:28:00;;;;;;;5.20;2.20;;;15.70;99.90;;;;;;6224853;23;20087;-89
2023/07/05 04:30:48;;;;;;;6.55;2.78;;;15.70;99.90;;;;;;6217872;23;20024;-87
2023/07/05 04:33:36;;;;;;;13.63;2.95;;;15.70;1.00;;;;;;6214958;23;20040;-87
2023/07/05 04:36:26;;;;;;;7.10;2.20;;;15.70;1.00;;;;;;6217474;23;20042;-88
2023/07/05 04:39:15;;;;;;;3.13;2.40;;;15.70;1.00;;;;;;6198928;23;20068;-92
2023/07/05 04:42:04;;;;;;;4.00;2.60;;;15.70;1.00;;;;;;6197385;23;20103;-94
2023/07/05 04:44:54;;;;;;;2.05;1.92;;;15.70;43.80;;;;;;6197357;23;20029;-91
2023/07/05 04:47:42;;;;;;;3.70;2.22;;;15.70;31.90;;;;;;6196773;23;20289;-85
2023/07/05 04:50:33;;;;;;;3.75;2.35;;;15.70;1.00;;;;;;6217828;23;20025;-90
2023/07/05 04:53:22;;;;;;;4.50;2.47;;;15.80;1.00;;;;;;6219711;23;20025;-86
2023/07/05 04:56:14;;;;;;;5.88;2.25;;;15.80;1.00;;;;;;6218280;23;20028;-90
2023/07/05 04:59:04;;;;;;;;;;;15.90;99.90;;;;;;6220365;23;20111;-89
2023/07/05 05:01:54;;;;;;;3.30;2.40;;;15.90;99.90;;;;;;6221547;23;19916;-90
2023/07/05 05:04:46;;;;;;;8.57;2.67;;;16.00;99.90;;;;;;6201417;23;20024;-89
2023/07/05 05:07:36;;;;;;;4.80;2.30;;;16.10;99.90;;;;;;6202673;23;20028;-87
2023/07/05 05:10:26;;;;;;;3.50;2.22;;;16.10;1.00;;;;;;6200577;23;20024;-87
2023/07/05 05:13:15;;;;;;;3.80;2.50;;;16.20;1.00;;;;;;6223764;23;20031;-89
2023/07/05 05:16:03;;;;;;;4.72;2.55;;;16.40;1.00;;;;;;6222392;23;20020;-89
2023/07/05 05:18:53;;;;;;;3.20;1.98;;;16.40;99.90;;;;;;6204626;23;20028;-87
2023/07/05 05:21:41;;;;;;;4.70;1.80;;;16.60;99.90;;;;;;6223905;23;20446;-87
2023/07/05 05:24:40;;;;;;;4.45;2.47;;;16.70;97.70;;;;;;6203116;23;20102;-87
2023/07/05 05:27:27;;;;;;;5.18;2.50;;;16.80;1.00;;;;;;6209113;23;20020;-90
2023/07/05 05:30:15;;;;;;;4.03;2.17;;;16.80;1.00;;;;;;6223951;23;20031;-87
2023/07/05 05:33:06;;;;;;;5.43;2.10;;;16.70;1.00;;;;;;6229442;23;20455;-88
2023/07/05 05:35:56;;;;;;;4.38;2.17;;;16.70;99.90;;;;;;6214100;23;20103;-88
2023/07/05 05:38:43;;;;;;;4.00;2.30;;;16.80;99.90;;;;;;6178769;23;20035;-87
2023/07/05 05:41:30;;;;;;;3.97;2.22;;;16.80;99.90;;;;;;6219700;23;20020;-88
2023/07/05 05:44:18;;;;;;;2.85;2.38;;;16.90;99.90;;;;;;6200416;23;20107;-89
2023/07/05 05:47:15;;;;;;;4.72;2.67;;;17.00;99.90;;;;;;6218969;23;20029;-92
2023/07/05 05:50:03;;;;;;;3.25;2.00;;;17.10;99.90;;;;;;6218678;23;20035;-87
2023/07/05 05:52:51;;;;;;;6.40;2.50;;;17.30;99.90;;;;;;6217270;23;20020;-88
2023/07/05 05:55:39;;;;;;;6.10;2.50;;;17.40;23.00;;;;;;6194590;23;20032;-87
2023/07/05 05:58:30;;;;;;;4.10;2.30;;;17.40;1.00;;;;;;6215721;23;20102;-88
2023/07/05 06:01:19;;;;;;;5.72;2.60;;;17.50;1.00;;;;;;6216996;23;20025;-88
2023/07/05 06:04:07;;;;;;;3.80;2.40;;;17.50;1.00;;;;;;6197249;23;20439;-88
2023/07/05 06:07:02;;;;;;;3.90;2.45;;;17.60;1.00;;;;;;6217565;23;20088;-93
2023/07/05 06:09:53;;;;;;;7.05;2.20;;;17.70;99.90;;;;;;6218551;23;20060;-90
2023/07/05 06:12:52;;;;;;;8.10;3.05;;;17.90;99.90;;;;;;6199152;23;20036;-88
2023/07/05 06:15:39;;;;;;;5.65;2.85;;;18.00;99.90;;;;;;6197137;23;20028;-86
2023/07/05 06:18:32;;;;;;;5.63;2.03;;;18.00;99.90;;;;;;6195075;23;20120;-89
2023/07/05 06:21:19;;;;;;;;;;;18.00;99.90;;;;;;6195809;23;20025;-88
2023/07/05 06:24:07;;;;;;;4.10;2.38;;;18.00;99.90;;;;;;6196732;23;19926;-89
2023/07/05 06:27:00;;;;;;;5.82;2.83;;;18.00;99.90;;;;;;6195993;23;20033;-91
2023/07/05 06:29:55;;;;;;;3.33;2.00;;;18.10;99.90;;;;;;6196633;23;20103;-93
2023/07/05 06:32:47;;;;;;;3.13;2.50;;;18.20;99.90;;;;;;6200104;23;20410;-89
2023/07/05 06:35:34;;;;;;;3.80;2.80;;;18.30;99.90;;;;;;6218990;23;20021;-89
2023/07/05 06:38:25;;;;;;;5.32;2.35;;;18.50;99.90;;;;;;6197914;23;20085;-89
2023/07/05 06:41:12;;;;;;;5.55;2.33;;;18.80;99.90;;;;;;6195525;23;20025;-91
2023/07/05 06:44:04;;;;;;;2.88;2.30;;;18.80;99.90;;;;;;6196955;23;20056;-89
2023/07/05 06:46:54;;;;;;;3.08;2.50;;;18.50;99.90;;;;;;6199929;23;20223;-91
2023/07/05 06:49:44;;;;;;;6.50;2.90;;;18.00;99.90;;;;;;6196645;23;20025;-89
2023/07/05 06:52:34;;;;;;;5.78;2.97;;;17.60;1.00;;;;;;6194614;23;20025;-88
2023/07/05 06:55:27;;;;;;;3.58;2.90;;;17.20;99.90;;;;;;6198025;23;20028;-91
2023/07/05 06:58:21;;;;;;;4.85;2.95;;;17.00;1.00;;;;;;6215991;23;20090;-89
2023/07/05 07:01:08;;;;;;;5.07;3.20;;;16.70;99.90;;;;;;6215996;23;20056;-89
2023/07/05 07:03:59;;;;;;;8.45;3.78;;;16.50;1.00;;;;;;6196139;23;20028;-90
2023/07/05 07:06:46;;;;;;;5.78;3.33;;;16.50;1.00;;;;;;6197737;23;20032;-92
2023/07/05 07:09:34;;;;;;;4.55;2.75;;;16.30;99.90;;;;;;6194035;23;20099;-89
2023/07/05 07:12:22;;;;;;;5.97;2.65;;;16.30;99.90;;;;;;6195906;23;20100;-89
2023/07/05 07:15:09;;;;;;;4.82;2.80;;;16.30;4.10;;;;;;6197143;23;20025;-89
2023/07/05 07:17:57;;;;;;;6.82;4.07;;;16.60;99.90;;;;;;6194748;23;20035;-90
2023/07/05 07:20:52;;;;;;;5.13;2.47;;;16.70;99.90;;;;;;6219415;23;20040;-88
2023/07/05 07:23:41;;;;;;;3.25;2.13;;;16.60;99.90;;;;;;6198820;23;20036;-90
2023/07/05 07:26:28;;;;;;;6.80;3.88;;;16.60;99.90;;;;;;6195844;23;20028;-88
2023/07/05 07:29:35;;;;;;;3.13;2.00;;;16.60;1.00;;;;;;6198847;23;20039;-88
2023/07/05 07:32:22;;;;;;;2.83;1.95;;;16.80;57.10;;;;;;6195906;23;20307;-89
2023/07/05 07:35:12;;;;;;;5.28;2.05;;;17.10;1.00;;;;;;6195484;23;20024;-88
2023/07/05 07:38:00;;;;;;;2.00;1.35;;;17.30;99.90;;;;;;6196873;23;20033;-89
2023/07/05 07:40:47;;;;;;;2.70;1.77;;;17.20;1.00;;;;;;6218225;23;20383;-90
2023/07/05 07:43:37;;;;;;;2.30;1.60;;;17.10;99.90;;;;;;6194586;23;20025;-90
2023/07/05 07:46:29;;;;;;;2.15;1.40;;;17.00;99.90;;;;;;6218348;23;20103;-90
2023/07/05 07:49:16;;;;;;;3.80;1.95;;;16.90;1.00;;;;;;6195360;23;20017;-89
2023/07/05 07:52:10;;;;;;;4.60;1.60;;;16.90;1.00;;;;;;6198403;23;20095;-90
2023/07/05 07:54:58;;;;;;;4.63;1.45;;;17.10;1.00;;;;;;6195958;23;20020;-90
2023/07/05 07:57:45;;;;;;;3.30;1.65;;;17.20;99.90;;;;;;6196147;23;20055;-91
2023/07/05 08:00:33;;;;;;;2.72;1.75;;;17.30;99.90;;;;;;6197814;23;20028;-91
2023/07/05 08:03:21;;;;;;;2.42;1.67;;;17.20;31.60;;;;;;6196327;23;20032;-90
2023/07/05 08:06:10;;;;;;;1.85;1.63;;;17.10;1.00;;;;;;6198966;23;20031;-89
2023/07/05 08:08:59;;;;;;;1.70;1.60;;;16.90;1.00;;;;;;6219892;23;20118;-91
2023/07/05 08:11:47;;;;;;;7.45;4.32;;;16.60;99.90;;;;;;6197573;23;20024;-88
2023/07/05 08:14:35;;;;;;;6.43;3.00;;;16.60;99.90;;;;;;6225722;23;20078;-89
2023/07/05 08:17:29;;;;;;;2.17;1.35;;;16.50;99.90;;;;;;6202737;23;20122;-86
2023/07/05 08:20:19;;;;;;;4.63;1.90;;;16.40;1.00;;;;;;6199902;23;20099;-93
2023/07/05 08:23:06;;;;;;;10.07;1.88;;;16.40;99.90;;;;;;6197753;23;20382;-89
2023/07/05 08:25:55;;;;;;;10.27;2.15;;;16.40;1.00;;;;;;6196377;23;20060;-89
2023/07/05 08:28:42;;;;;;;3.67;1.55;;;16.50;1.00;;;;;;6197548;23;20114;-90
2023/07/05 08:31:30;;;;;;;6.05;2.00;;;16.70;99.90;;;;;;6220522;23;20048;-90
2023/07/05 08:34:21;;;;;;;2.80;1.60;;;17.10;99.90;;;;;;6197609;23;20035;-90
2023/07/05 08:37:11;;;;;;;4.25;1.75;;;17.30;99.90;;;;;;6197735;23;20021;-90
2023/07/05 08:39:58;;;;;;;3.38;1.73;;;17.00;91.80;;;;;;6217760;23;20656;-91
2023/07/05 08:43:08;;;;;;;2.17;1.70;;;16.60;99.90;;;;;;6197685;23;20035;-91
2023/07/05 08:46:05;;;;;;;2.10;1.40;;;16.40;99.90;;;;;;6199119;23;20099;-91
2023/07/05 08:49:21;;;;;;;1.90;1.45;;;16.30;99.90;;;;;;6216365;23;20108;-91
2023/07/05 08:52:44;;;;;;;2.85;1.30;;;16.40;99.90;;;;;;6196872;23;20025;-91
2023/07/05 08:55:52;;;;;;;3.22;2.00;;;16.50;99.90;;;;;;6197700;23;20031;-90
2023/07/05 08:58:56;;;;;;;2.83;1.60;;;16.70;99.90;;;;;;6196987;23;20027;-89
2023/07/05 09:01:45;;;;;;;;;;;17.10;99.90;;;;;;6196728;23;20496;-90
2023/07/05 09:04:40;;;;;;;3.22;1.30;;;18.20;1.00;;;;;;6197296;23;19926;-92
2023/07/05 09:07:46;;;;;;;1.85;1.20;;;19.00;99.90;;;;;;6197889;23;20032;-90
2023/07/05 09:10:54;;;;;;;1.88;1.40;;;19.60;99.90;;;;;;6197950;23;20036;-89
2023/07/05 09:13:59;;;;;;;2.15;1.58;;;20.20;99.90;;;;;;6199190;23;20096;-91
2023/07/05 09:17:03;;;;;;;6.07;1.83;;;20.20;18.10;;;;;;6217783;23;20024;-92
2023/07/05 09:20:23;;;;;;;2.45;1.50;;;20.00;1.00;;;;;;6196508;23;20492;-90
2023/07/05 09:23:28;;;;;;;4.78;1.95;;;20.20;1.00;;;;;;6197350;23;20025;-92
2023/07/05 09:26:35;;;;;;;2.83;2.13;;;20.40;1.00;;;;;;6196326;23;20056;-93
2023/07/05 09:29:31;;;;;;;2.08;1.42;;;20.50;99.90;;;;;;6195809;23;20024;-90
2023/07/05 09:32:24;;;;;;;3.72;1.55;;;20.10;99.90;;;;;;6196795;23;20020;-88
2023/07/05 09:35:25;;;;;;;3.67;1.77;;;20.10;99.90;;;;;;6195830;23;20327;-93
2023/07/05 09:38:35;;;;;;;2.85;1.65;;;20.30;99.90;;;;;;6197032;23;20286;-92
2023/07/05 09:41:41;;;;;;;2.20;1.88;;;21.00;99.90;;;;;;6217959;23;20052;-90
2023/07/05 09:44:32;;;;;;;2.63;1.70;;;20.80;99.90;;;;;;6197522;23;20060;-91
2023/07/05 09:47:28;;;;;;;3.20;2.10;;;20.40;99.90;;;;;;6218473;23;20523;-88
2023/07/05 09:50:18;;;;;;;3.38;2.30;;;20.20;99.90;;;;;;6215970;23;20029;-91
2023/07/05 09:53:12;;;;;;;5.72;2.42;;;20.20;99.90;;;;;;6196672;23;20025;-90
2023/07/05 09:56:04;;;;;;;4.00;2.40;;;20.40;99.90;;;;;;6216964;23;20021;-88
2023/07/05 09:59:15;;;;;;;3.63;2.30;;;21.30;99.90;;;;;;6216799;23;20021;-88
2023/07/05 10:02:14;;;;;;;4.18;2.60;;;22.70;99.90;;;;;;6198728;23;20420;-90
2023/07/05 10:05:14;;;;;;;3.33;2.65;;;23.50;87.50;;;;;;6198358;23;20029;-90
2023/07/05 10:08:07;;;;;;;4.70;2.53;;;24.30;55.20;;;;;;6220197;23;20428;-87
2023/07/05 10:10:54;;;;;;;5.70;2.60;;;24.60;31.40;;;;;;6219118;23;20024;-91
2023/07/05 10:13:42;;;;;;;3.13;2.58;;;24.30;19.30;;;;;;6220179;22;20024;-90
2023/07/05 10:16:53;;;;;;;4.60;2.58;;;24.00;12.80;;;;;;6218812;23;20103;-87
2023/07/05 10:19:51;;;;;;;5.45;2.80;;;24.10;3.30;;;;;;6220883;22;20025;-93
2023/07/05 10:22:38;;;;;;;2.85;2.50;;;24.40;1.00;;;;;;6220584;22;20471;-89
2023/07/05 10:25:33;;;;;;;2.75;2.47;;;24.60;1.00;;;;;;6220525;22;20107;-89
2023/07/05 10:28:29;;;;;;;7.53;3.05;;;24.80;1.00;;;;;;6219329;23;20043;-93
2023/07/05 10:31:30;;;;;;;6.10;2.67;;;25.20;1.00;;;;;;6220128;22;20021;-87
2023/07/05 10:34:23;;;;;;;3.72;2.60;;;25.50;1.00;;;;;;6221329;22;20074;-90
2023/07/05 10:37:31;;;;;;;3.00;2.47;;;24.80;1.00;;;;;;6225243;22;20091;-92
2023/07/05 10:40:24;;;;;;;7.18;2.58;;;24.80;1.00;;;;;;6223225;23;20032;-88
2023/07/05 10:43:13;;;;;;;6.45;2.63;;;24.60;1.00;;;;;;6220359;22;20039;-89
2023/07/05 10:46:02;;;;;;;6.03;2.60;;;24.80;1.00;;;;;;6219773;22;20028;-88
2023/07/05 10:48:51;;;;;;;4.80;2.72;;;24.70;1.00;;;;;;6219814;22;20438;-91
2023/07/05 10:51:47;;;;;;;3.85;2.38;;;24.40;1.00;;;;;;6218386;23;20031;-89
2023/07/05 10:55:02;;;;;;;5.05;2.90;;;24.90;1.00;;;;;;6217529;23;20035;-91
2023/07/05 10:58:00;;;;;;;2.58;2.35;;;25.30;1.00;;;;;;6219981;22;20055;-89
2023/07/05 11:01:09;;;;;;;3.38;3.03;;;25.90;1.00;;;;;;6220117;22;20096;-91
2023/07/05 11:04:05;;;;;;;4.65;2.35;;;26.00;1.00;;;;;;6219780;23;20339;-91
2023/07/05 11:07:00;;;;;;;4.03;2.50;;;26.10;1.00;;;;;;6219270;22;20024;-86
2023/07/05 11:09:48;;;;;;;3.35;2.47;;;25.60;1.00;;;;;;6217334;23;20021;-88
2023/07/05 11:12:38;;;;;;;3.63;2.58;;;25.00;1.00;;;;;;6216362;23;20020;-89
2023/07/05 11:15:28;;;;;;;2.90;2.28;;;24.80;1.00;;;;;;6219256;23;20056;-91
2023/07/05 11:18:22;;;;;;;3.50;2.50;;;25.20;1.00;;;;;;6218112;23;20025;-88
2023/07/05 11:21:34;;;;;;;2.85;2.20;;;24.90;1.00;;;;;;6196568;23;20115;-90
2023/07/05 11:24:44;;;;;;;4.82;2.60;;;25.70;1.00;;;;;;6219255;22;20087;-87
2023/07/05 11:27:37;;;;;;;3.50;2.63;;;26.50;1.00;;;;;;6217208;23;20029;-90
2023/07/05 11:30:39;;;;;;;4.03;2.65;;;26.50;1.00;;;;;;6216934;23;20024;-88
2023/07/05 11:33:31;;;;;;;5.05;2.90;;;26.50;1.00;;;;;;6218700;23;20035;-91
2023/07/05 11:36:31;;;;;;;5.15;2.78;;;26.70;1.00;;;;;;6219622;23;20048;-91
2023/07/05 11:39:45;;;;;;;7.30;2.72;;;26.50;1.00;;;;;;6219143;22;20029;-90
2023/07/05 11:42:42;;;;;;;6.18;2.50;;;26.20;1.00;;;;;;6217606;23;20032;-89
2023/07/05 11:45:46;;;;;;;3.78;3.05;;;26.30;1.00;;;;;;6215912;23;20029;-88
2023/07/05 11:48:39;;;;;;;3.65;2.53;;;25.70;1.00;;;;;;6238065;23;20067;-87
2023/07/05 11:51:33;;;;;;;3.08;2.70;;;25.70;1.00;;;;;;6218231;23;20020;-89
2023/07/05 11:54:31;;;;;;;3.67;2.53;;;26.20;1.00;;;;;;6217139;23;20047;-90
2023/07/05 11:57:20;;;;;;;3.72;2.45;;;26.40;1.00;;;;;;6218421;23;20021;-89
2023/07/05 12:00:18;;;;;;;2.88;2.45;;;26.30;1.00;;;;;;6216985;23;20421;-89
2023/07/05 12:03:13;;;;;;;2.22;2.00;;;27.20;1.00;;;;;;6217698;23;20028;-87
2023/07/05 12:06:21;;;;;;;4.38;2.10;;;26.70;1.00;;;;;;6219894;22;20032;-89
2023/07/05 12:09:27;;;;;;;3.70;2.55;;;27.20;1.00;;;;;;6216041;23;20103;-89
2023/07/05 12:12:14;;;;;;;4.50;2.85;;;26.30;1.00;;;;;;6194755;23;20029;-85
2023/07/05 12:15:03;;;;;;;2.85;2.35;;;26.70;1.00;;;;;;6194837;23;20021;-89
2023/07/05 12:17:53;;;;;;;4.78;2.50;;;26.60;1.00;;;;;;6213266;23;20151;-87
2023/07/05 12:20:43;;;;;;;3.88;2.40;;;26.90;1.00;;;;;;6193236;23;20024;-87
2023/07/05 12:23:33;;;;;;;5.50;2.08;;;27.30;1.00;;;;;;6214451;23;20025;-86
2023/07/05 12:26:31;;;;;;;4.18;2.45;;;27.70;1.00;;;;;;6214861;23;20038;-87
2023/07/05 12:29:29;;;;;;;6.10;2.13;;;27.60;1.00;;;;;;6214420;23;20103;-87
2023/07/05 12:32:20;;;;;;;6.00;2.47;;;28.50;1.00;;;;;;6214733;23;20116;-88
2023/07/05 12:35:24;;;;;;;3.60;2.22;;;29.40;1.00;;;;;;6214280;23;20024;-86
2023/07/05 12:38:17;;;;;;;4.18;1.92;;;29.30;1.00;;;;;;6193483;23;20031;-89
2023/07/05 12:41:13;;;;;;;2.25;2.00;;;28.60;1.00;;;;;;6194479;23;20039;-85
2023/07/05 12:44:09;;;;;;;2.78;2.10;;;27.60;1.00;;;;;;6214258;23;20029;-88
2023/07/05 12:47:17;;;;;;;2.10;1.90;;;26.30;1.00;;;;;;6216939;23;20039;-89
2023/07/05 12:50:05;;;;;;;3.65;2.15;;;26.10;1.00;;;;;;6216978;23;20032;-87
2023/07/05 12:53:13;;;;;;;3.30;2.00;;;27.40;1.00;;;;;;6218306;23;20056;-89
2023/07/05 12:56:04;;;;;;;3.42;2.20;;;28.40;1.00;;;;;;6216465;23;20388;-85
2023/07/05 12:59:03;;;;;;;5.53;1.95;;;29.30;1.00;;;;;;6221608;23;20383;-86
2023/07/05 13:01:55;;;;;;;2.97;2.00;;;30.00;1.00;;;;;;6216581;23;20052;-87
2023/07/05 13:04:44;;;;;;;2.65;1.73;;;29.30;1.00;;;;;;6194257;23;20124;-86
2023/07/05 13:07:41;;;;;;;2.05;1.77;;;28.70;1.00;;;;;;6193852;23;20111;-87
2023/07/05 13:10:28;;;;;;;2.88;1.55;;;29.30;1.00;;;;;;6213969;23;20052;-85
2023/07/05 13:13:32;;;;;;;3.35;2.15;;;29.40;1.00;;;;;;6194547;23;20103;-88
2023/07/05 13:16:26;;;;;;;1.90;1.70;;;30.10;1.00;;;;;;6217822;23;20706;-88
2023/07/05 13:19:14;;;;;;;2.40;1.90;;;29.70;1.00;;;;;;6199520;23;20024;-84
2023/07/05 13:22:23;;;;;;;3.00;1.95;;;28.60;1.00;;;;;;6217848;23;20089;-87
2023/07/05 13:25:32;;;;;;;4.22;2.03;;;28.20;1.00;;;;;;6196324;23;20028;-87
2023/07/05 13:28:22;;;;;;;2.15;1.90;;;28.80;1.00;;;;;;6215336;23;20098;-87
2023/07/05 13:31:21;;;;;;;3.50;1.75;;;29.50;1.00;;;;;;6215298;23;20024;-87
2023/07/05 13:34:11;;;;;;;5.82;1.90;;;28.70;1.00;;;;;;6195721;23;20031;-86
2023/07/05 13:37:05;;;;;;;4.55;1.90;;;29.00;1.00;;;;;;6195828;23;20131;-87
2023/07/05 13:39:56;;;;;;;1.70;1.60;;;29.00;1.00;;;;;;6215459;23;20024;-88
2023/07/05 13:42:44;;;;;;;2.57;1.70;;;28.80;1.00;;;;;;6215849;23;20443;-86
2023/07/05 13:45:39;;;;;;;2.97;1.63;;;29.30;1.00;;;;;;6195155;23;20255;-86
2023/07/05 13:48:27;;;;;;;2.40;1.83;;;29.10;1.00;;;;;;6215909;23;20377;-88
2023/07/05 13:51:32;;;;;;;3.85;1.90;;;29.00;1.00;;;;;;6217964;23;20028;-88
2023/07/05 13:54:20;;;;;;;2.70;1.92;;;29.30;1.00;;;;;;6199092;23;20062;-86
2023/07/05 13:57:17;;;;;;;2.45;1.92;;;29.40;1.00;;;;;;6226848;23;20048;-90
2023/07/05 14:00:09;;;;;;;2.85;1.75;;;29.40;1.00;;;;;;6221285;23;20025;-87
2023/07/05 14:02:59;;;;;;;;;;;27.90;1.00;;;;;;6222050;23;20024;-89
2023/07/05 14:05:46;;;;;;;6.80;3.70;;;27.60;1.00;;;;;;6201505;23;19947;-89
2023/07/05 14:08:33;;;;;;;2.60;2.17;;;27.60;1.00;;;;;;6214838;23;20091;-89
2023/07/05 14:11:26;;;;;;;4.82;2.10;;;28.40;1.00;;;;;;6213018;23;20020;-86
2023/07/05 14:14:17;;;;;;;3.35;1.90;;;29.20;1.00;;;;;;6214652;23;20114;-86
2023/07/05 14:17:07;;;;;;;3.90;1.80;;;29.50;1.00;;;;;;6216664;23;20563;-87
2023/07/05 14:19:57;;;;;;;1.63;1.45;;;30.50;1.00;;;;;;6213424;23;20743;-88
2023/07/05 14:22:45;;;;;;;2.30;2.05;;;31.10;1.00;;;;;;6216220;23;20036;-86
2023/07/05 14:25:41;;;;;;;3.05;2.10;;;29.30;1.00;;;;;;6215297;23;20107;-86
2023/07/05 14:28:30;;;;;;;1.90;1.70;;;28.20;1.00;;;;;;6215536;23;20029;-87
2023/07/05 14:31:20;;;;;;;2.40;1.60;;;28.60;1.00;;;;;;6218428;23;20021;-86
2023/07/05 14:34:12;;;;;;;3.92;2.20;;;27.70;1.00;;;;;;6195233;23;20151;-86
2023/07/05 14:36:59;;;;;;;2.42;2.05;;;27.50;1.00;;;;;;6217365;23;20035;-87
2023/07/05 14:39:51;;;;;;;2.70;1.98;;;27.60;1.00;;;;;;6215336;23;20428;-88
2023/07/05 14:42:40;;;;;;;2.78;2.05;;;27.80;1.00;;;;;;6216461;23;20031;-88
2023/07/05 14:45:34;;;;;;;4.18;1.88;;;28.60;1.00;;;;;;6213979;23;20100;-89
2023/07/05 14:48:21;;;;;;;2.35;2.08;;;28.70;1.00;;;;;;6217687;23;20316;-88
2023/07/05 14:51:12;;;;;;;2.25;2.05;;;28.50;1.00;;;;;;6194806;23;20024;-90
2023/07/05 14:54:00;;;;;;;3.07;2.03;;;27.30;1.00;;;;;;6216601;23;20028;-88
2023/07/05 14:56:50;;;;;;;4.78;2.08;;;27.40;1.00;;;;;;6215370;23;20017;-86
2023/07/05 14:59:41;;;;;;;1.65;1.52;;;27.50;1.00;;;;;;6215040;23;20017;-85
2023/07/05 15:02:28;;;;;;;3.42;1.60;;;27.70;1.00;;;;;;6194447;23;20020;-88
2023/07/05 15:05:16;;;;;;;3.25;1.90;;;27.90;1.00;;;;;;6215332;23;20032;-89
2023/07/05 15:08:05;;;;;;;2.20;1.92;;;28.50;1.00;;;;;;6198049;23;20039;-89
2023/07/05 15:10:53;;;;;;;6.20;2.03;;;29.10;1.00;;;;;;6217429;22;20095;-88
2023/07/05 15:13:45;;;;;;;5.95;2.13;;;29.70;1.00;;;;;;6215845;23;20024;-87